Clovis, New Mexico
Current Conditions -  °F | °C
As of 12:55 PM on Thursday 30 Oct 2014 (Local Time) from KCVN Reporting Station
Clear Clear  
Wind Chill: 72°   Ceiling: Unl
Heat Index: 72°   Visibility: 10mi
Dew Point: 27°   Wind: 25mph
Humidity: 19%   Direction: 40°NE
Pressure: 30.29"   Gusts: 30mph
Location:  34.41°N, 103.2°W
Report Text: KCVN 301855Z AUTO 04022G26KT 10SM CLR 22/M03 A3029 RMK AO1
Loading
Personal Weather Stations






























Interactive Weather Map
Tropical Storm Tracking
New forecast layout! Learn more

10-Day Weather Forecast

Advertisements
Track Severe Weather on mobile